createdAt,value
2022-12-14T00:01:49.260Z,13.13
2022-12-14T00:04:18.217Z,13.27
2022-12-14T00:06:46.681Z,18.60
2022-12-14T00:09:14.896Z,14.80
2022-12-14T00:11:43.080Z,12.60
2022-12-14T00:14:11.288Z,16.87
2022-12-14T00:16:40.879Z,14.30
2022-12-14T00:19:09.833Z,13.03
2022-12-14T00:21:38.036Z,13.03
2022-12-14T00:24:06.520Z,13.70
2022-12-14T00:26:34.944Z,14.43
2022-12-14T00:29:03.702Z,15.50
2022-12-14T00:31:32.640Z,13.90
2022-12-14T00:34:02.348Z,12.97
2022-12-14T00:36:31.861Z,12.40
2022-12-14T00:39:00.223Z,13.13
2022-12-14T00:41:28.489Z,12.73
2022-12-14T00:43:56.700Z,13.03
2022-12-14T00:46:25.126Z,12.50
2022-12-14T00:48:53.338Z,13.40
2022-12-14T00:51:22.885Z,13.90
2022-12-14T00:53:51.047Z,13.30
2022-12-14T00:56:19.244Z,12.50
2022-12-14T00:58:51.654Z,13.27
2022-12-14T01:01:19.965Z,13.23
2022-12-14T01:03:48.399Z,12.70
2022-12-14T01:06:17.561Z,13.47
2022-12-14T01:08:47.588Z,12.43
2022-12-14T01:11:16.164Z,13.70
2022-12-14T01:13:44.413Z,13.60
2022-12-14T01:16:13.712Z,14.20
2022-12-14T01:18:43.306Z,12.47
2022-12-14T01:21:12.781Z,13.73
2022-12-14T01:23:41.276Z,13.57
2022-12-14T01:26:10.856Z,13.40
2022-12-14T01:28:39.012Z,14.07
2022-12-14T01:31:08.530Z,13.23
2022-12-14T01:33:36.814Z,14.40
2022-12-14T01:36:05.927Z,12.90
2022-12-14T01:38:34.151Z,14.00
2022-12-14T01:41:02.526Z,12.90
2022-12-14T01:43:45.579Z,14.33
2022-12-14T01:46:20.010Z,12.97
2022-12-14T01:48:49.713Z,13.53
2022-12-14T01:51:17.936Z,13.07
2022-12-14T01:53:46.872Z,13.87
2022-12-14T01:56:15.089Z,13.53
2022-12-14T01:58:43.300Z,13.40
2022-12-14T02:01:12.257Z,12.60
2022-12-14T02:03:43.551Z,13.43
2022-12-14T02:06:14.024Z,13.60
2022-12-14T02:08:44.374Z,13.27
2022-12-14T02:11:12.758Z,13.00
2022-12-14T02:13:41.880Z,14.30
2022-12-14T02:16:10.187Z,15.50
2022-12-14T02:18:38.415Z,14.03
2022-12-14T02:21:15.513Z,13.27
2022-12-14T02:23:55.405Z,13.63
2022-12-14T02:26:41.479Z,14.27
2022-12-14T02:29:24.613Z,16.07
2022-12-14T02:31:58.814Z,13.13
2022-12-14T02:34:31.008Z,14.47
2022-12-14T02:37:01.515Z,17.07
2022-12-14T02:39:32.803Z,21.43
2022-12-14T02:42:04.820Z,16.90
2022-12-14T02:44:35.522Z,14.60
2022-12-14T02:47:08.157Z,14.83
2022-12-14T02:49:43.252Z,12.30
2022-12-14T02:52:24.095Z,15.50
2022-12-14T02:54:57.248Z,18.03
2022-12-14T02:57:28.659Z,13.93
2022-12-14T02:59:58.703Z,20.97
2022-12-14T03:02:29.041Z,17.10
2022-12-14T03:04:57.428Z,16.07
2022-12-14T03:07:28.597Z,14.67
2022-12-14T03:09:56.915Z,13.70
2022-12-14T03:12:25.338Z,14.23
2022-12-14T03:14:54.170Z,14.87
2022-12-14T03:17:24.452Z,15.97
2022-12-14T03:19:55.315Z,15.30
2022-12-14T03:22:25.760Z,13.73
2022-12-14T03:24:55.034Z,15.50
2022-12-14T03:27:26.201Z,13.77
2022-12-14T03:29:56.248Z,14.57
2022-12-14T03:32:26.504Z,12.90
2022-12-14T03:34:58.630Z,15.50
2022-12-14T03:37:29.477Z,14.77
2022-12-14T03:39:57.871Z,14.60
2022-12-14T03:42:27.652Z,14.80
2022-12-14T03:45:01.024Z,14.10
2022-12-14T03:47:41.536Z,15.27
2022-12-14T03:50:14.067Z,14.27
2022-12-14T03:52:44.471Z,14.13
2022-12-14T03:55:21.062Z,14.67
2022-12-14T03:57:55.739Z,15.53
2022-12-14T04:00:25.452Z,14.60
2022-12-14T04:02:56.596Z,13.90
2022-12-14T04:05:32.127Z,14.20
2022-12-14T04:08:05.512Z,13.87
2022-12-14T04:10:57.136Z,15.00
2022-12-14T04:13:49.063Z,13.87
2022-12-14T04:16:37.824Z,13.93
2022-12-14T04:19:08.607Z,16.60
2022-12-14T04:21:42.048Z,15.53
2022-12-14T04:24:29.793Z,14.37
2022-12-14T04:27:00.224Z,14.27
2022-12-14T04:29:48.350Z,15.03
2022-12-14T04:32:19.183Z,14.33
2022-12-14T04:34:50.884Z,15.00
2022-12-14T04:37:22.097Z,13.60
2022-12-14T04:39:51.699Z,15.07
2022-12-14T04:42:21.896Z,14.50
2022-12-14T04:44:52.212Z,15.00
2022-12-14T04:47:21.492Z,14.00
2022-12-14T04:49:51.973Z,14.13
2022-12-14T04:52:23.210Z,14.70
2022-12-14T04:54:54.180Z,12.60
2022-12-14T04:57:25.047Z,14.53
2022-12-14T04:59:53.554Z,14.20
2022-12-14T05:02:24.530Z,15.20
2022-12-14T05:04:59.163Z,14.43
2022-12-14T05:07:36.452Z,14.70
2022-12-14T05:10:08.204Z,16.57
2022-12-14T05:12:39.716Z,14.07
2022-12-14T05:15:09.562Z,13.87
2022-12-14T05:17:38.220Z,15.33
2022-12-14T05:20:07.216Z,15.30
2022-12-14T05:22:38.750Z,14.50
2022-12-14T05:25:07.518Z,15.33
2022-12-14T05:27:35.714Z,14.00
2022-12-14T05:30:04.123Z,13.77
2022-12-14T05:32:32.346Z,14.80
2022-12-14T05:35:00.579Z,14.47
2022-12-14T05:37:28.812Z,15.00
2022-12-14T05:39:58.311Z,16.50
2022-12-14T05:42:26.530Z,15.07
2022-12-14T05:44:55.078Z,14.40
2022-12-14T05:47:23.259Z,14.73
2022-12-14T05:49:51.488Z,14.60
2022-12-14T05:52:19.812Z,13.73
2022-12-14T05:54:47.999Z,15.10
2022-12-14T05:57:17.579Z,16.03
2022-12-14T05:59:45.754Z,14.87
2022-12-14T06:02:14.178Z,14.63
2022-12-14T06:04:42.479Z,14.27
2022-12-14T06:07:12.520Z,16.30
2022-12-14T06:09:40.689Z,15.90
2022-12-14T06:12:08.908Z,15.70
2022-12-14T06:14:38.452Z,15.60
2022-12-14T06:17:06.607Z,16.47
2022-12-14T06:19:34.839Z,15.10
2022-12-14T06:22:02.999Z,15.13
2022-12-14T06:24:31.266Z,16.40
2022-12-14T06:26:59.439Z,14.57
2022-12-14T06:29:27.611Z,15.13
2022-12-14T06:31:57.122Z,14.60
2022-12-14T06:34:28.621Z,15.87
2022-12-14T06:36:57.111Z,15.73
2022-12-14T06:39:25.340Z,13.67
2022-12-14T06:41:53.560Z,15.40
2022-12-14T06:44:21.843Z,14.90
2022-12-14T06:46:50.068Z,14.30
2022-12-14T06:49:19.609Z,17.13
2022-12-14T06:51:48.116Z,21.17
2022-12-14T06:54:17.171Z,23.07
2022-12-14T06:56:46.534Z,36.50
2022-12-14T06:59:14.845Z,30.23
2022-12-14T07:01:43.305Z,26.70
2022-12-14T07:04:11.775Z,23.50
2022-12-14T07:06:42.407Z,27.90
2022-12-14T07:09:12.853Z,20.80
2022-12-14T07:11:41.184Z,17.00
2022-12-14T07:14:09.364Z,18.57
2022-12-14T07:16:37.777Z,20.37
2022-12-14T07:19:05.969Z,18.00
2022-12-14T07:21:34.281Z,17.37
2022-12-14T07:24:03.832Z,14.80
2022-12-14T07:26:32.032Z,16.90
2022-12-14T07:29:01.541Z,18.17
2022-12-14T07:31:30.498Z,16.03
2022-12-14T07:33:59.413Z,16.23
2022-12-14T07:36:28.437Z,16.63
2022-12-14T07:38:57.006Z,16.30
2022-12-14T07:41:30.530Z,15.30
2022-12-14T07:43:59.304Z,16.57
2022-12-14T07:46:28.726Z,16.33
2022-12-14T07:48:57.810Z,17.10
2022-12-14T07:51:27.206Z,17.33
2022-12-14T07:53:55.503Z,16.47
2022-12-14T07:56:24.882Z,17.70
2022-12-14T07:58:55.976Z,17.23
2022-12-14T08:01:25.422Z,15.70
2022-12-14T08:03:54.383Z,17.33
2022-12-14T08:06:23.613Z,16.70
2022-12-14T08:08:52.109Z,15.50
2022-12-14T08:11:22.196Z,16.10
2022-12-14T08:13:53.934Z,16.57
2022-12-14T08:16:23.535Z,16.70
2022-12-14T08:18:52.384Z,17.17
2022-12-14T08:21:22.058Z,16.70
2022-12-14T08:23:50.742Z,17.10
2022-12-14T08:26:19.208Z,16.50
2022-12-14T08:28:48.565Z,17.90
2022-12-14T08:31:17.951Z,16.90
2022-12-14T08:33:47.988Z,17.77
2022-12-14T08:36:17.299Z,14.50
2022-12-14T08:38:45.583Z,16.70
2022-12-14T08:41:14.734Z,16.63
2022-12-14T08:43:43.211Z,17.50
2022-12-14T08:46:12.130Z,18.13
2022-12-14T08:48:40.761Z,16.70
2022-12-14T08:51:10.990Z,16.60
2022-12-14T08:53:39.671Z,16.43
2022-12-14T08:56:08.504Z,16.70
2022-12-14T08:58:36.807Z,15.67
2022-12-14T09:01:06.727Z,17.47
2022-12-14T09:03:35.224Z,16.70
2022-12-14T09:06:04.210Z,17.43
2022-12-14T09:08:34.121Z,17.27
2022-12-14T09:11:02.518Z,17.37
2022-12-14T09:13:30.965Z,18.20
2022-12-14T09:16:00.553Z,16.87
2022-12-14T09:18:29.412Z,18.23
2022-12-14T09:20:58.377Z,17.40
2022-12-14T09:23:28.278Z,16.93
2022-12-14T09:26:01.835Z,17.30
2022-12-14T09:28:30.356Z,15.70
2022-12-14T09:30:58.942Z,15.27
2022-12-14T09:33:27.730Z,16.70
2022-12-14T09:36:00.872Z,17.87
2022-12-14T09:38:29.120Z,16.90
2022-12-14T09:40:58.968Z,16.03
2022-12-14T09:43:37.860Z,16.77
2022-12-14T09:46:13.115Z,17.20
2022-12-14T09:48:43.169Z,18.03
2022-12-14T09:51:15.175Z,17.80
2022-12-14T09:53:43.807Z,17.30
2022-12-14T09:56:14.771Z,17.07
2022-12-14T09:58:48.003Z,16.03
2022-12-14T10:01:25.582Z,26.30
2022-12-14T10:03:59.890Z,39.67
2022-12-14T10:06:32.849Z,34.70
2022-12-14T10:09:05.732Z,28.23
2022-12-14T10:11:37.483Z,19.60
2022-12-14T10:14:12.416Z,16.60
2022-12-14T10:16:47.046Z,24.50
2022-12-14T10:19:23.893Z,22.00
2022-12-14T10:21:56.063Z,23.60
2022-12-14T10:24:26.344Z,16.27
2022-12-14T10:26:55.618Z,16.97
2022-12-14T10:29:31.131Z,18.57
2022-12-14T10:32:05.236Z,17.03
2022-12-14T10:34:34.892Z,16.70
2022-12-14T10:37:07.445Z,18.77
2022-12-14T10:39:41.174Z,17.47
2022-12-14T10:42:17.131Z,15.00
2022-12-14T10:44:59.957Z,16.37
2022-12-14T10:47:39.884Z,17.17
2022-12-14T10:50:18.802Z,16.93
2022-12-14T10:52:48.674Z,17.60
2022-12-14T10:55:18.151Z,16.50
2022-12-14T10:57:46.516Z,17.17
2022-12-14T11:00:22.778Z,16.80
2022-12-14T11:02:54.109Z,16.63
2022-12-14T11:05:36.107Z,16.30
2022-12-14T11:08:06.739Z,17.30
2022-12-14T11:10:36.063Z,17.60
2022-12-14T11:13:05.601Z,18.07
2022-12-14T11:15:38.095Z,18.67
2022-12-14T11:18:07.993Z,16.50
2022-12-14T11:20:36.255Z,18.60
2022-12-14T11:23:09.260Z,17.57
2022-12-14T11:25:39.681Z,19.03
2022-12-14T11:28:18.462Z,19.73
2022-12-14T11:30:55.629Z,19.27
2022-12-14T11:33:24.002Z,19.40
2022-12-14T11:35:52.791Z,18.20
2022-12-14T11:38:21.088Z,18.33
2022-12-14T11:40:49.393Z,18.20
2022-12-14T11:43:23.917Z,18.13
2022-12-14T11:45:52.653Z,16.90
2022-12-14T11:48:23.393Z,17.67
2022-12-14T11:50:52.264Z,18.30
2022-12-14T11:53:22.342Z,16.87
2022-12-14T11:55:52.979Z,17.93
2022-12-14T11:58:22.273Z,16.57
2022-12-14T12:00:51.622Z,16.10
2022-12-14T12:03:24.272Z,17.10
2022-12-14T12:05:54.412Z,16.87
2022-12-14T12:08:25.459Z,16.97
2022-12-14T12:10:54.434Z,18.33
2022-12-14T12:13:25.668Z,19.40
2022-12-14T12:15:55.588Z,18.57
2022-12-14T12:18:27.279Z,21.37
2022-12-14T12:20:59.425Z,23.13
2022-12-14T12:23:31.941Z,20.20
2022-12-14T12:26:01.016Z,20.77
2022-12-14T12:28:31.639Z,19.63
2022-12-14T12:31:06.000Z,18.90
2022-12-14T12:33:42.140Z,20.07
2022-12-14T12:36:11.887Z,19.93
2022-12-14T12:38:50.564Z,19.67
2022-12-14T12:41:27.219Z,20.80
2022-12-14T12:43:59.596Z,18.47
2022-12-14T12:46:30.398Z,19.57
2022-12-14T12:49:02.833Z,25.80
2022-12-14T12:51:35.397Z,29.10
2022-12-14T12:54:07.088Z,22.97
2022-12-14T12:56:38.471Z,29.27
2022-12-14T12:59:07.374Z,26.33
2022-12-14T13:01:37.353Z,24.77
2022-12-14T13:04:10.241Z,22.70
2022-12-14T13:06:42.387Z,24.33
2022-12-14T13:09:16.583Z,20.20
2022-12-14T13:11:45.671Z,22.07
2022-12-14T13:14:19.669Z,22.80
2022-12-14T13:16:48.183Z,22.10
2022-12-14T13:19:49.757Z,26.07
2022-12-14T13:22:14.923Z,22.37
2022-12-14T13:24:44.289Z,24.30
2022-12-14T13:27:30.389Z,23.47
2022-12-14T13:30:06.817Z,23.40
2022-12-14T13:32:42.477Z,23.00
2022-12-14T13:35:19.483Z,25.00
2022-12-14T13:37:59.906Z,22.10
2022-12-14T13:40:46.662Z,24.20
2022-12-14T13:43:22.481Z,20.97
2022-12-14T13:45:51.032Z,21.80
2022-12-14T13:48:21.670Z,21.30
2022-12-14T13:51:01.335Z,22.47
2022-12-14T13:53:33.264Z,22.60
2022-12-14T13:56:02.275Z,27.57
2022-12-14T13:58:34.583Z,25.30
2022-12-14T14:01:04.091Z,25.97
2022-12-14T14:03:52.894Z,23.93
2022-12-14T14:06:22.711Z,23.07
2022-12-14T14:08:52.871Z,20.33
2022-12-14T14:11:40.011Z,22.47
2022-12-14T14:14:13.256Z,29.00
2022-12-14T14:16:44.561Z,20.20
2022-12-14T14:19:19.413Z,22.10
2022-12-14T14:24:56.611Z,27.63
2022-12-14T14:27:26.088Z,27.17
2022-12-14T14:29:54.495Z,27.47
2022-12-14T14:32:34.038Z,41.27
2022-12-14T14:35:03.027Z,24.33
2022-12-14T14:37:33.449Z,30.40
2022-12-14T14:40:33.476Z,26.87
2022-12-14T14:43:19.519Z,22.43
2022-12-14T14:45:50.189Z,21.07
2022-12-14T14:48:24.427Z,21.00
2022-12-14T14:51:02.969Z,21.53
2022-12-14T14:53:32.012Z,22.20
2022-12-14T14:56:06.463Z,20.70
2022-12-14T14:58:36.505Z,21.43
2022-12-14T15:01:24.677Z,21.17
2022-12-14T15:03:55.372Z,19.30
2022-12-14T15:06:25.257Z,20.70
2022-12-14T15:08:57.452Z,20.63
2022-12-14T15:11:27.640Z,18.73
2022-12-14T15:13:58.274Z,23.43
2022-12-14T15:16:30.758Z,21.97
2022-12-14T15:19:13.862Z,19.57
2022-12-14T15:21:42.089Z,19.90
2022-12-14T15:24:14.998Z,20.43
2022-12-14T15:26:44.853Z,20.93
2022-12-14T15:29:17.935Z,20.57
2022-12-14T15:31:46.604Z,24.00
2022-12-14T15:34:17.279Z,24.97
2022-12-14T15:36:45.827Z,24.20
2022-12-14T15:39:30.800Z,22.50
2022-12-14T15:42:10.649Z,20.10
2022-12-14T15:44:43.634Z,19.30
2022-12-14T15:47:32.847Z,19.80
2022-12-14T15:50:16.363Z,19.30
2022-12-14T15:52:45.345Z,16.30
2022-12-14T15:55:22.360Z,16.50
2022-12-14T15:57:52.919Z,15.47
2022-12-14T16:00:21.239Z,14.70
2022-12-14T16:02:49.850Z,32.10
2022-12-14T16:05:20.283Z,63.43
2022-12-14T16:07:51.000Z,67.67
2022-12-14T16:10:23.144Z,72.87
2022-12-14T16:12:55.165Z,42.37
2022-12-14T16:15:24.892Z,32.70
2022-12-14T16:17:59.292Z,28.70
2022-12-14T16:20:31.714Z,21.50
2022-12-14T16:23:01.570Z,27.70
2022-12-14T16:25:30.189Z,14.27
2022-12-14T16:27:59.723Z,13.97
2022-12-14T16:30:29.868Z,13.03
2022-12-14T16:33:15.756Z,11.27
2022-12-14T16:35:44.678Z,10.83
2022-12-14T16:38:14.477Z,12.60
2022-12-14T16:40:44.106Z,11.40
2022-12-14T16:43:26.907Z,11.87
2022-12-14T16:46:10.359Z,11.40
2022-12-14T16:48:40.324Z,10.77
2022-12-14T16:51:24.844Z,11.83
2022-12-14T16:54:06.956Z,11.17
2022-12-14T16:56:39.392Z,12.30
2022-12-14T16:59:24.810Z,12.40
2022-12-14T17:01:53.378Z,13.43
2022-12-14T17:04:22.029Z,18.83
2022-12-14T17:06:51.672Z,18.20
2022-12-14T17:09:20.755Z,20.53
2022-12-14T17:11:49.203Z,18.00
2022-12-14T17:14:19.757Z,17.63
2022-12-14T17:16:49.883Z,16.70
2022-12-14T17:19:21.284Z,16.40
2022-12-14T17:21:51.157Z,16.80
2022-12-14T17:24:20.700Z,15.90
2022-12-14T17:26:49.491Z,17.00
2022-12-14T17:29:23.425Z,16.20
2022-12-14T17:31:54.807Z,15.17
2022-12-14T17:34:23.331Z,18.00
2022-12-14T17:36:51.514Z,17.90
2022-12-14T17:39:20.371Z,17.23
2022-12-14T17:41:49.264Z,23.77
2022-12-14T17:44:18.363Z,24.50
2022-12-14T17:46:48.775Z,24.60
2022-12-14T17:49:33.768Z,32.93
2022-12-14T17:52:02.341Z,28.33
2022-12-14T17:54:33.096Z,22.47
2022-12-14T17:57:01.550Z,23.00
2022-12-14T17:59:29.764Z,24.00
2022-12-14T18:01:59.442Z,22.77
2022-12-14T18:04:27.693Z,19.57
2022-12-14T18:06:55.958Z,17.70
2022-12-14T18:09:24.196Z,18.87
2022-12-14T18:12:21.639Z,19.30
2022-12-14T18:14:40.675Z,17.13
2022-12-14T18:17:11.817Z,18.20
2022-12-14T18:19:40.383Z,16.87
2022-12-14T18:22:09.321Z,17.37
2022-12-14T18:24:37.522Z,17.50
2022-12-14T18:27:08.001Z,18.33
2022-12-14T18:29:36.206Z,18.70
2022-12-14T18:32:04.395Z,18.33
2022-12-14T18:34:34.087Z,18.60
2022-12-14T18:37:02.292Z,17.60
2022-12-14T18:39:30.535Z,19.27
2022-12-14T18:41:58.727Z,25.53
2022-12-14T18:44:26.922Z,20.60
2022-12-14T18:46:55.168Z,17.13
2022-12-14T18:49:23.442Z,17.83
2022-12-14T18:51:53.239Z,17.10
2022-12-14T18:54:21.441Z,15.40
2022-12-14T18:56:49.784Z,13.93
2022-12-14T18:59:18.012Z,14.73
2022-12-14T19:01:46.261Z,15.27
2022-12-14T19:04:14.536Z,11.93
2022-12-14T19:06:44.645Z,13.50
2022-12-14T19:09:15.504Z,11.87
2022-12-14T19:11:43.839Z,11.73
2022-12-14T19:14:12.143Z,12.90
2022-12-14T19:16:40.444Z,12.10
2022-12-14T19:19:08.676Z,12.67
2022-12-14T19:21:36.823Z,13.10
2022-12-14T19:24:08.396Z,13.00
2022-12-14T19:26:39.277Z,13.40
2022-12-14T19:29:07.469Z,14.50
2022-12-14T19:31:35.767Z,16.23
2022-12-14T19:34:03.956Z,17.40
2022-12-14T19:36:32.127Z,18.30
2022-12-14T19:39:00.927Z,15.83
2022-12-14T19:41:29.113Z,16.90
2022-12-14T19:43:58.939Z,17.13
2022-12-14T19:46:27.147Z,17.20
2022-12-14T19:48:57.577Z,16.27
2022-12-14T19:51:25.806Z,16.20
2022-12-14T19:53:55.948Z,16.70
2022-12-14T19:56:24.264Z,16.00
2022-12-14T19:58:52.528Z,14.70
2022-12-14T20:01:22.206Z,15.23
2022-12-14T20:03:50.622Z,16.73
2022-12-14T20:06:18.942Z,15.83
2022-12-14T20:08:49.628Z,17.33
2022-12-14T20:11:18.097Z,17.47
2022-12-14T20:13:46.715Z,17.10
2022-12-14T20:16:17.422Z,18.67
2022-12-14T20:18:47.224Z,15.60
2022-12-14T20:21:21.654Z,16.23
2022-12-14T20:23:50.568Z,19.40
2022-12-14T20:26:19.908Z,25.50
2022-12-14T20:28:49.317Z,20.27
2022-12-14T20:31:17.569Z,21.40
2022-12-14T20:33:47.688Z,14.23
2022-12-14T20:36:16.405Z,14.40
2022-12-14T20:38:44.637Z,14.13
2022-12-14T20:41:17.621Z,12.70
2022-12-14T20:43:46.563Z,12.70
2022-12-14T20:46:25.218Z,12.17
2022-12-14T20:48:55.015Z,13.23
2022-12-14T20:51:23.205Z,13.73
2022-12-14T20:53:51.424Z,13.47
2022-12-14T20:56:19.636Z,13.53
2022-12-14T20:58:48.680Z,12.17
2022-12-14T21:01:17.836Z,15.13
2022-12-14T21:03:47.314Z,14.40
2022-12-14T21:06:17.512Z,13.90
2022-12-14T21:09:09.600Z,14.67
2022-12-14T21:11:56.532Z,11.80
2022-12-14T21:14:25.685Z,13.50
2022-12-14T21:16:53.948Z,13.70
2022-12-14T21:19:22.284Z,14.00
2022-12-14T21:21:54.076Z,13.37
2022-12-14T21:25:00.427Z,13.90
2022-12-14T21:27:12.020Z,13.23
2022-12-14T21:29:40.183Z,12.40
2022-12-14T21:32:08.479Z,13.60
2022-12-14T21:34:36.947Z,13.10
2022-12-14T21:37:06.506Z,12.33
2022-12-14T21:39:34.716Z,11.47
2022-12-14T21:42:12.765Z,12.27
2022-12-14T21:44:41.522Z,12.53
2022-12-14T21:47:10.585Z,12.73
2022-12-14T21:49:39.672Z,12.17
2022-12-14T21:52:09.779Z,11.30
2022-12-14T21:54:39.961Z,11.13
2022-12-14T21:57:26.037Z,11.40
2022-12-14T21:59:55.801Z,10.10
2022-12-14T22:02:25.395Z,11.10
2022-12-14T22:04:56.274Z,10.20
2022-12-14T22:07:27.399Z,11.03
2022-12-14T22:09:55.543Z,10.20
2022-12-14T22:12:23.741Z,11.60
2022-12-14T22:14:52.046Z,10.67
2022-12-14T22:17:20.310Z,11.47
2022-12-14T22:19:48.943Z,10.33
2022-12-14T22:22:18.039Z,9.07
2022-12-14T22:24:49.501Z,9.27
2022-12-14T22:27:17.786Z,8.97
2022-12-14T22:29:45.987Z,10.23
2022-12-14T22:32:14.548Z,8.10
2022-12-14T22:34:42.944Z,8.47
2022-12-14T22:37:11.411Z,8.77
2022-12-14T22:39:39.963Z,8.17
2022-12-14T22:42:10.437Z,9.53
2022-12-14T22:44:38.973Z,9.30
2022-12-14T22:47:07.175Z,8.50
2022-12-14T22:49:35.360Z,9.43
2022-12-14T22:52:03.537Z,8.60
2022-12-14T22:54:31.736Z,9.77
2022-12-14T22:57:02.320Z,9.50
2022-12-14T22:59:34.739Z,9.07
2022-12-14T23:02:03.077Z,8.90
2022-12-14T23:04:31.495Z,8.83
2022-12-14T23:06:59.714Z,9.77
2022-12-14T23:09:45.406Z,9.03
2022-12-14T23:12:32.408Z,8.13
2022-12-14T23:15:19.714Z,8.80
2022-12-14T23:18:05.662Z,8.63
2022-12-14T23:20:51.723Z,7.50
2022-12-14T23:23:37.880Z,8.13
2022-12-14T23:26:24.200Z,7.80
2022-12-14T23:29:10.383Z,7.03
2022-12-14T23:31:57.793Z,7.73
2022-12-14T23:34:43.752Z,8.33
2022-12-14T23:37:29.726Z,7.27
2022-12-14T23:40:16.104Z,8.03
2022-12-14T23:43:02.066Z,8.53
2022-12-14T23:45:48.143Z,7.60
2022-12-14T23:48:35.259Z,8.10
2022-12-14T23:51:21.346Z,8.87
2022-12-14T23:54:07.270Z,8.90
2022-12-14T23:56:53.657Z,10.60
2022-12-14T23:59:40.156Z,9.43
